createdAt,value
2023-04-07T00:02:16.553Z,6.97
2023-04-07T00:04:44.945Z,8.67
2023-04-07T00:07:12.993Z,8.47
2023-04-07T00:09:41.253Z,12.10
2023-04-07T00:12:09.269Z,10.77
2023-04-07T00:14:37.317Z,8.73
2023-04-07T00:17:06.955Z,9.10
2023-04-07T00:19:35.811Z,8.87
2023-04-07T00:22:04.107Z,6.87
2023-04-07T00:24:34.680Z,10.20
2023-04-07T00:27:03.602Z,9.97
2023-04-07T00:29:32.067Z,10.10
2023-04-07T00:32:00.288Z,9.67
2023-04-07T00:34:29.672Z,10.27
2023-04-07T00:36:57.668Z,10.37
2023-04-07T00:39:27.529Z,10.37
2023-04-07T00:41:56.637Z,10.63
2023-04-07T00:44:24.707Z,9.80
2023-04-07T00:46:53.086Z,15.00
2023-04-07T00:49:21.876Z,13.73
2023-04-07T00:51:51.349Z,11.00
2023-04-07T00:54:19.707Z,11.97
2023-04-07T00:56:47.934Z,12.43
2023-04-07T00:59:16.050Z,10.53
2023-04-07T01:01:47.822Z,11.60
2023-04-07T01:04:24.431Z,12.10
2023-04-07T01:06:57.422Z,11.77
2023-04-07T01:09:38.794Z,12.03
2023-04-07T01:12:13.689Z,13.20
2023-04-07T01:14:48.655Z,11.37
2023-04-07T01:17:35.831Z,12.30
2023-04-07T01:20:08.321Z,12.70
2023-04-07T01:22:44.503Z,13.10
2023-04-07T01:25:44.824Z,11.93
2023-04-07T01:28:29.570Z,12.50
2023-04-07T01:31:01.085Z,12.63
2023-04-07T01:33:32.382Z,12.73
2023-04-07T01:36:02.111Z,12.63
2023-04-07T01:38:31.006Z,11.97
2023-04-07T01:41:00.480Z,13.37
2023-04-07T01:43:29.714Z,13.83
2023-04-07T01:46:00.477Z,11.33
2023-04-07T01:48:29.128Z,14.30
2023-04-07T01:50:57.725Z,12.67
2023-04-07T01:53:26.739Z,14.47
2023-04-07T01:55:55.563Z,13.17
2023-04-07T01:58:23.642Z,13.00
2023-04-07T02:00:51.772Z,11.07
2023-04-07T02:03:31.854Z,13.20
2023-04-07T02:06:07.801Z,13.20
2023-04-07T02:08:43.589Z,13.30
2023-04-07T02:11:13.964Z,12.67
2023-04-07T02:13:43.532Z,14.33
2023-04-07T02:16:14.803Z,11.80
2023-04-07T02:18:47.062Z,12.67
2023-04-07T02:21:16.570Z,13.90
2023-04-07T02:23:47.482Z,12.43
2023-04-07T02:26:15.540Z,12.33
2023-04-07T02:28:43.633Z,13.00
2023-04-07T02:31:13.771Z,11.13
2023-04-07T02:33:41.836Z,12.23
2023-04-07T02:36:11.159Z,11.07
2023-04-07T02:38:39.138Z,10.20
2023-04-07T02:41:07.439Z,8.40
2023-04-07T02:43:35.433Z,10.27
2023-04-07T02:46:03.489Z,7.13
2023-04-07T02:48:31.505Z,8.17
2023-04-07T02:51:00.199Z,8.07
2023-04-07T02:53:29.518Z,8.10
2023-04-07T02:55:57.658Z,7.60
2023-04-07T02:58:25.777Z,6.53
2023-04-07T03:00:53.859Z,7.07
2023-04-07T03:03:24.651Z,7.03
2023-04-07T03:06:10.758Z,7.30
2023-04-07T03:08:49.492Z,8.20
2023-04-07T03:11:17.526Z,7.13
2023-04-07T03:13:46.117Z,8.07
2023-04-07T03:16:16.088Z,6.80
2023-04-07T03:18:57.601Z,7.50
2023-04-07T03:21:25.757Z,6.50
2023-04-07T03:23:55.573Z,9.07
2023-04-07T03:26:24.118Z,8.80
2023-04-07T03:28:52.634Z,8.87
2023-04-07T03:31:21.405Z,10.17
2023-04-07T03:33:52.187Z,9.87
2023-04-07T03:36:21.497Z,9.30
2023-04-07T03:38:49.887Z,8.23
2023-04-07T03:41:21.008Z,9.77
2023-04-07T03:43:48.979Z,9.63
2023-04-07T03:46:17.040Z,7.47
2023-04-07T03:48:45.518Z,9.20
2023-04-07T03:51:13.626Z,9.47
2023-04-07T03:53:42.011Z,8.07
2023-04-07T03:56:29.124Z,7.80
2023-04-07T03:58:59.276Z,8.07
2023-04-07T04:01:34.590Z,8.03
2023-04-07T04:04:09.204Z,7.47
2023-04-07T04:06:37.328Z,6.83
2023-04-07T04:09:14.425Z,6.70
2023-04-07T04:11:47.979Z,11.20
2023-04-07T04:14:17.246Z,7.13
2023-04-07T04:16:51.528Z,7.63
2023-04-07T04:19:36.122Z,5.93
2023-04-07T04:22:12.323Z,8.07
2023-04-07T04:24:49.459Z,6.40
2023-04-07T04:27:18.796Z,6.93
2023-04-07T04:29:52.528Z,7.07
2023-04-07T04:32:27.197Z,6.40
2023-04-07T04:34:55.319Z,7.03
2023-04-07T04:37:24.102Z,6.47
2023-04-07T04:39:52.065Z,5.87
2023-04-07T04:42:26.303Z,6.80
2023-04-07T04:44:55.849Z,5.87
2023-04-07T04:47:24.137Z,5.87
2023-04-07T04:49:52.361Z,5.40
2023-04-07T04:52:21.754Z,5.13
2023-04-07T04:54:51.528Z,5.70
2023-04-07T04:57:20.310Z,4.90
2023-04-07T04:59:50.685Z,5.37
2023-04-07T05:02:18.842Z,3.57
2023-04-07T05:04:47.084Z,4.43
2023-04-07T05:07:25.592Z,4.70
2023-04-07T05:09:53.756Z,4.23
2023-04-07T05:12:22.943Z,4.20
2023-04-07T05:14:59.126Z,4.20
2023-04-07T05:17:27.292Z,4.90
2023-04-07T05:19:55.733Z,4.77
2023-04-07T05:22:34.318Z,5.07
2023-04-07T05:25:03.192Z,4.53
2023-04-07T05:27:31.222Z,4.43
2023-04-07T05:30:06.442Z,4.60
2023-04-07T05:32:36.200Z,3.90
2023-04-07T05:35:11.427Z,5.83
2023-04-07T05:37:45.394Z,3.97
2023-04-07T05:40:13.906Z,5.00
2023-04-07T05:42:42.007Z,3.60
2023-04-07T05:45:12.750Z,4.47
2023-04-07T05:47:43.972Z,5.20
2023-04-07T05:50:14.085Z,4.07
2023-04-07T05:52:46.138Z,4.17
2023-04-07T05:55:22.808Z,4.10
2023-04-07T05:57:51.667Z,4.27
2023-04-07T06:00:24.207Z,4.10
2023-04-07T06:03:02.458Z,3.40
2023-04-07T06:05:35.266Z,4.17
2023-04-07T06:08:03.544Z,3.90
2023-04-07T06:10:31.811Z,4.40
2023-04-07T06:12:59.765Z,4.10
2023-04-07T06:15:29.685Z,3.87
2023-04-07T06:17:57.676Z,5.10
2023-04-07T06:20:27.690Z,3.73
2023-04-07T06:22:55.855Z,4.03
2023-04-07T06:25:23.882Z,4.77
2023-04-07T06:27:51.932Z,5.60
2023-04-07T06:30:20.141Z,4.40
2023-04-07T06:32:49.742Z,5.53
2023-04-07T06:35:17.755Z,5.07
2023-04-07T06:37:45.997Z,5.70
2023-04-07T06:40:13.997Z,5.20
2023-04-07T06:42:41.959Z,6.80
2023-04-07T06:45:24.031Z,7.43
2023-04-07T06:47:53.345Z,5.47
2023-04-07T06:50:22.323Z,4.57
2023-04-07T06:52:50.303Z,5.50
2023-04-07T06:55:18.412Z,4.90
2023-04-07T06:57:46.377Z,5.70
2023-04-07T07:00:14.981Z,5.73
2023-04-07T07:02:42.993Z,5.50
2023-04-07T07:05:12.744Z,6.10
2023-04-07T07:07:40.763Z,5.73
2023-04-07T07:10:10.631Z,4.97
2023-04-07T07:12:38.598Z,6.60
2023-04-07T07:15:08.044Z,5.63
2023-04-07T07:17:36.032Z,5.47
2023-04-07T07:20:04.423Z,5.47
2023-04-07T07:22:33.745Z,5.27
2023-04-07T07:25:01.795Z,5.07
2023-04-07T07:27:29.760Z,6.10
2023-04-07T07:29:57.752Z,6.00
2023-04-07T07:32:25.922Z,5.20
2023-04-07T07:34:53.904Z,4.70
2023-04-07T07:37:21.893Z,5.40
2023-04-07T07:39:51.215Z,5.03
2023-04-07T07:42:19.451Z,5.47
2023-04-07T07:44:47.520Z,5.07
2023-04-07T07:47:15.575Z,6.57
2023-04-07T07:49:43.537Z,6.03
2023-04-07T07:52:11.848Z,6.20
2023-04-07T07:54:39.806Z,5.80
2023-04-07T07:57:09.208Z,6.23
2023-04-07T07:59:37.230Z,6.47
2023-04-07T08:02:05.450Z,6.33
2023-04-07T08:04:33.457Z,6.67
2023-04-07T08:07:01.488Z,5.90
2023-04-07T08:09:32.048Z,6.73
2023-04-07T08:12:00.136Z,7.03
2023-04-07T08:14:29.450Z,4.97
2023-04-07T08:16:57.530Z,6.03
2023-04-07T08:19:25.518Z,5.70
2023-04-07T08:21:53.432Z,5.73
2023-04-07T08:24:21.377Z,5.13
2023-04-07T08:26:49.353Z,6.30
2023-04-07T08:29:17.342Z,6.73
2023-04-07T08:31:46.665Z,6.27
2023-04-07T08:34:14.967Z,6.07
2023-04-07T08:36:44.019Z,6.50
2023-04-07T08:39:12.160Z,6.87
2023-04-07T08:41:41.340Z,5.63
2023-04-07T08:44:09.629Z,6.07
2023-04-07T08:46:40.310Z,6.20
2023-04-07T08:49:13.797Z,5.73
2023-04-07T08:51:47.250Z,5.70
2023-04-07T08:54:18.825Z,5.77
2023-04-07T08:56:47.023Z,4.97
2023-04-07T08:59:18.254Z,4.60
2023-04-07T09:01:47.499Z,7.17
2023-04-07T09:04:17.780Z,5.67
2023-04-07T09:06:45.878Z,5.00
2023-04-07T09:09:15.372Z,6.10
2023-04-07T09:11:43.537Z,5.07
2023-04-07T09:14:11.585Z,6.10
2023-04-07T09:16:40.056Z,6.00
2023-04-07T09:19:08.130Z,6.40
2023-04-07T09:21:51.252Z,5.90
2023-04-07T09:24:23.290Z,6.17
2023-04-07T09:26:51.336Z,4.50
2023-04-07T09:29:21.174Z,5.37
2023-04-07T09:31:51.902Z,5.17
2023-04-07T09:34:28.190Z,5.30
2023-04-07T09:36:58.244Z,5.50
2023-04-07T09:39:26.616Z,4.00
2023-04-07T09:41:54.982Z,5.10
2023-04-07T09:44:24.064Z,4.40
2023-04-07T09:46:53.227Z,5.93
2023-04-07T09:49:22.175Z,6.40
2023-04-07T09:51:59.777Z,8.00
2023-04-07T09:54:35.828Z,6.20
2023-04-07T09:57:05.056Z,7.00
2023-04-07T09:59:34.369Z,6.33
2023-04-07T10:02:03.019Z,6.23
2023-04-07T10:04:31.193Z,6.23
2023-04-07T10:07:01.060Z,7.03
2023-04-07T10:09:29.862Z,6.67
2023-04-07T10:11:59.719Z,5.63
2023-04-07T10:14:31.061Z,5.23
2023-04-07T10:17:01.509Z,5.13
2023-04-07T10:19:33.162Z,5.20
2023-04-07T10:22:04.137Z,5.27
2023-04-07T10:24:43.553Z,5.97
2023-04-07T10:27:15.612Z,4.90
2023-04-07T10:29:47.397Z,4.87
2023-04-07T10:32:15.732Z,5.37
2023-04-07T10:35:05.151Z,6.00
2023-04-07T10:37:34.578Z,5.43
2023-04-07T10:40:30.789Z,6.30
2023-04-07T10:42:59.293Z,5.60
2023-04-07T10:46:00.395Z,6.07
2023-04-07T10:48:33.195Z,5.70
2023-04-07T10:51:18.239Z,6.33
2023-04-07T11:00:18.433Z,5.10
2023-04-07T11:02:46.842Z,5.03
2023-04-07T11:05:23.441Z,5.83
2023-04-07T11:07:55.100Z,5.90
2023-04-07T11:10:23.318Z,5.40
2023-04-07T11:13:02.218Z,4.53
2023-04-07T11:15:31.712Z,4.67
2023-04-07T11:18:17.921Z,4.63
2023-04-07T11:20:52.634Z,4.40
2023-04-07T11:23:23.059Z,3.63
2023-04-07T11:25:52.549Z,3.53
2023-04-07T11:28:23.404Z,3.50
2023-04-07T11:34:16.886Z,4.10
2023-04-07T11:36:53.529Z,3.63
2023-04-07T11:39:58.770Z,3.57
2023-04-07T11:42:33.987Z,3.53
2023-04-07T11:45:02.003Z,3.63
2023-04-07T11:50:50.737Z,3.93
2023-04-07T11:53:27.098Z,3.90
2023-04-07T11:56:04.392Z,3.90
2023-04-07T11:58:32.522Z,3.53
2023-04-07T12:01:05.057Z,3.90
2023-04-07T12:03:34.196Z,3.50
2023-04-07T12:10:44.542Z,3.30
2023-04-07T12:13:15.162Z,4.13
2023-04-07T12:15:43.592Z,3.50
2023-04-07T12:18:18.242Z,3.23
2023-04-07T12:20:46.235Z,4.17
2023-04-07T12:29:20.967Z,4.07
2023-04-07T12:31:51.063Z,3.97
2023-04-07T12:34:19.713Z,3.97
2023-04-07T12:36:48.225Z,3.90
2023-04-07T12:39:16.739Z,4.00
2023-04-07T12:41:45.687Z,4.00
2023-04-07T12:44:13.684Z,4.30
2023-04-07T12:46:43.213Z,5.13
2023-04-07T12:49:11.251Z,4.47
2023-04-07T12:51:40.196Z,4.13
2023-04-07T12:54:08.641Z,4.50
2023-04-07T12:56:36.647Z,4.57
2023-04-07T12:59:04.947Z,3.70
2023-04-07T13:01:35.155Z,4.40
2023-04-07T13:04:04.699Z,4.40
2023-04-07T13:06:33.550Z,5.20
2023-04-07T13:09:01.492Z,4.87
2023-04-07T13:11:29.476Z,5.73
2023-04-07T13:13:59.220Z,5.27
2023-04-07T13:16:28.751Z,4.67
2023-04-07T13:18:57.185Z,4.97
2023-04-07T13:21:45.146Z,5.20
2023-04-07T13:24:14.502Z,5.33
2023-04-07T13:26:42.479Z,4.60
2023-04-07T13:29:10.446Z,4.80
2023-04-07T13:31:38.570Z,5.23
2023-04-07T13:34:06.514Z,4.43
2023-04-07T13:36:35.803Z,3.20
2023-04-07T13:39:04.194Z,4.30
2023-04-07T13:41:32.111Z,4.07
2023-04-07T13:44:00.756Z,3.93
2023-04-07T13:46:29.530Z,3.57
2023-04-07T13:48:57.767Z,3.57
2023-04-07T13:51:25.712Z,3.77
2023-04-07T13:53:55.112Z,4.43
2023-04-07T13:56:23.512Z,3.70
2023-04-07T13:58:51.812Z,4.00
2023-04-07T14:01:19.848Z,5.00
2023-04-07T14:03:49.549Z,3.90
2023-04-07T14:06:17.902Z,3.10
2023-04-07T14:08:45.866Z,3.20
2023-04-07T14:11:18.392Z,3.23
2023-04-07T14:13:46.875Z,3.80
2023-04-07T14:16:14.982Z,3.47
2023-04-07T14:18:43.173Z,3.80
2023-04-07T14:21:11.197Z,3.33
2023-04-07T14:23:39.268Z,3.13
2023-04-07T14:26:10.364Z,2.97
2023-04-07T14:45:52.081Z,3.60
2023-04-07T14:48:20.051Z,5.90
2023-04-07T14:50:50.197Z,4.20
2023-04-07T14:53:24.500Z,3.60
2023-04-07T14:55:52.410Z,3.37
2023-04-07T14:58:20.349Z,3.60
2023-04-07T15:00:48.344Z,3.57
2023-04-07T15:03:17.961Z,3.57
2023-04-07T15:05:46.310Z,4.47
2023-04-07T15:08:14.239Z,3.00
2023-04-07T15:10:42.233Z,3.60
2023-04-07T15:13:10.224Z,3.63
2023-04-07T15:15:38.172Z,3.37
2023-04-07T15:18:06.154Z,3.40
2023-04-07T15:20:35.566Z,3.37
2023-04-07T15:23:03.542Z,3.57
2023-04-07T15:25:31.529Z,3.00
2023-04-07T15:27:59.524Z,3.80
2023-04-07T15:30:27.454Z,3.93
2023-04-07T15:33:00.336Z,4.37
2023-04-07T15:35:28.613Z,4.60
2023-04-07T15:37:57.897Z,5.30
2023-04-07T15:40:25.940Z,3.80
2023-04-07T15:42:53.938Z,4.23
2023-04-07T15:45:22.160Z,4.57
2023-04-07T15:47:50.225Z,3.80
2023-04-07T15:50:18.260Z,3.60
2023-04-07T15:52:46.262Z,3.43
2023-04-07T15:55:15.586Z,3.70
2023-04-07T15:57:43.580Z,3.30
2023-04-07T16:00:12.112Z,3.93
2023-04-07T16:02:40.210Z,5.80
2023-04-07T16:05:09.012Z,5.13
2023-04-07T16:07:37.249Z,3.80
2023-04-07T16:10:08.069Z,4.10
2023-04-07T16:12:37.914Z,3.80
2023-04-07T16:22:37.757Z,4.37
2023-04-07T16:25:06.939Z,4.30
2023-04-07T16:27:34.908Z,3.37
2023-04-07T16:30:05.104Z,5.00
2023-04-07T16:32:33.240Z,4.47
2023-04-07T16:35:01.280Z,4.00
2023-04-07T16:37:30.254Z,3.83
2023-04-07T16:39:58.470Z,5.03
2023-04-07T16:42:28.466Z,4.17
2023-04-07T16:44:57.646Z,3.87
2023-04-07T16:47:27.226Z,3.90
2023-04-07T16:49:55.266Z,4.33
2023-04-07T16:52:23.903Z,4.60
2023-04-07T16:54:51.921Z,3.63
2023-04-07T16:57:19.907Z,4.30
2023-04-07T16:59:48.374Z,4.97
2023-04-07T17:02:17.053Z,4.63
2023-04-07T17:04:46.608Z,4.57
2023-04-07T17:07:14.694Z,5.23
2023-04-07T17:09:42.662Z,4.30
2023-04-07T17:12:10.683Z,5.07
2023-04-07T17:14:38.683Z,4.90
2023-04-07T17:17:06.641Z,6.93
2023-04-07T17:19:35.558Z,5.23
2023-04-07T17:22:04.866Z,8.00
2023-04-07T17:24:32.821Z,9.70
2023-04-07T17:27:00.873Z,8.00
2023-04-07T17:29:31.218Z,5.93
2023-04-07T17:31:59.182Z,5.33
2023-04-07T17:34:27.166Z,7.17
2023-04-07T17:36:55.091Z,6.67
2023-04-07T17:39:24.433Z,6.73
2023-04-07T17:41:52.390Z,5.87
2023-04-07T17:44:20.358Z,8.00
2023-04-07T17:46:48.396Z,5.67
2023-04-07T17:49:17.036Z,6.30
2023-04-07T17:51:45.743Z,5.67
2023-04-07T17:54:13.785Z,5.60
2023-04-07T17:56:43.109Z,5.23
2023-04-07T17:59:11.099Z,4.90
2023-04-07T18:01:39.566Z,5.03
2023-04-07T18:04:07.766Z,5.50
2023-04-07T18:06:36.810Z,4.53
2023-04-07T18:09:05.560Z,5.60
2023-04-07T18:11:33.788Z,5.23
2023-04-07T18:14:03.164Z,5.60
2023-04-07T18:16:31.172Z,6.40
2023-04-07T18:19:00.434Z,5.60
2023-04-07T18:21:29.407Z,7.77
2023-04-07T18:23:57.348Z,5.93
2023-04-07T18:26:25.308Z,5.87
2023-04-07T18:28:53.322Z,5.20
2023-04-07T18:31:22.735Z,6.10
2023-04-07T18:33:51.009Z,5.73
2023-04-07T18:36:19.189Z,6.40
2023-04-07T18:38:47.307Z,5.70
2023-04-07T18:41:15.355Z,5.40
2023-04-07T18:43:43.338Z,5.67
2023-04-07T18:46:11.466Z,5.57
2023-04-07T18:48:43.964Z,5.40
2023-04-07T18:51:12.568Z,5.47
2023-04-07T18:53:40.626Z,6.40
2023-04-07T18:56:08.599Z,5.90
2023-04-07T18:58:43.568Z,5.90
2023-04-07T19:01:12.125Z,5.90
2023-04-07T19:03:41.897Z,6.07
2023-04-07T19:06:10.367Z,5.03
2023-04-07T19:08:38.321Z,4.90
2023-04-07T19:11:06.398Z,5.80
2023-04-07T19:13:34.353Z,5.77
2023-04-07T19:16:02.918Z,5.70
2023-04-07T19:18:31.822Z,5.27
2023-04-07T19:21:01.497Z,5.50
2023-04-07T19:23:30.408Z,5.30
2023-04-07T19:25:58.522Z,5.40
2023-04-07T19:28:26.599Z,5.40
2023-04-07T19:30:54.855Z,6.00
2023-04-07T19:33:22.785Z,5.00
2023-04-07T19:35:50.810Z,4.80
2023-04-07T19:38:20.393Z,6.20
2023-04-07T19:40:48.466Z,5.40
2023-04-07T19:43:17.375Z,5.50
2023-04-07T19:45:47.650Z,5.97
2023-04-07T19:48:15.665Z,6.47
2023-04-07T19:50:44.050Z,6.50
2023-04-07T19:53:15.825Z,5.63
2023-04-07T19:55:45.259Z,5.80
2023-04-07T19:58:13.726Z,5.33
2023-04-07T20:00:41.824Z,9.43
2023-04-07T20:03:09.930Z,7.13
2023-04-07T20:05:38.331Z,5.93
2023-04-07T20:08:06.368Z,6.07
2023-04-07T20:10:34.372Z,6.00
2023-04-07T20:13:05.866Z,5.00
2023-04-07T20:15:34.405Z,5.43
2023-04-07T20:18:02.754Z,6.37
2023-04-07T20:20:31.139Z,6.63
2023-04-07T20:22:59.078Z,5.53
2023-04-07T20:25:27.037Z,5.63
2023-04-07T20:27:54.968Z,6.27
2023-04-07T20:30:24.319Z,6.00
2023-04-07T20:32:52.334Z,6.40
2023-04-07T20:35:20.537Z,6.67
2023-04-07T20:37:48.475Z,5.53
2023-04-07T20:40:16.945Z,6.40
2023-04-07T20:42:45.910Z,6.07
2023-04-07T20:45:13.905Z,6.30
2023-04-07T20:47:43.234Z,5.33
2023-04-07T20:50:11.679Z,6.53
2023-04-07T20:52:40.309Z,6.60
2023-04-07T20:55:09.333Z,5.50
2023-04-07T20:57:37.365Z,6.90
2023-04-07T21:00:06.345Z,6.10
2023-04-07T21:02:34.754Z,6.20
2023-04-07T21:05:04.692Z,6.23
2023-04-07T21:07:32.625Z,6.90
2023-04-07T21:10:00.932Z,7.27
2023-04-07T21:12:28.826Z,6.27
2023-04-07T21:14:56.738Z,6.80
2023-04-07T21:17:24.776Z,6.40
2023-04-07T21:19:52.720Z,8.73
2023-04-07T21:22:22.044Z,7.23
2023-04-07T21:24:50.022Z,7.87
2023-04-07T21:27:18.310Z,6.87
2023-04-07T21:29:46.279Z,8.30
2023-04-07T21:32:14.300Z,7.73
2023-04-07T21:34:42.342Z,5.80
2023-04-07T21:37:10.287Z,6.03
2023-04-07T21:39:39.587Z,6.70
2023-04-07T21:42:07.573Z,6.77
2023-04-07T21:44:35.552Z,6.20
2023-04-07T21:47:03.521Z,6.77
2023-04-07T21:49:31.844Z,6.40
2023-04-07T21:52:00.120Z,6.93
2023-04-07T21:54:28.064Z,7.87
2023-04-07T21:56:57.342Z,6.37
2023-04-07T21:59:25.576Z,7.87
2023-04-07T22:01:53.687Z,7.33
2023-04-07T22:04:22.872Z,7.60
2023-04-07T22:06:51.001Z,6.70
2023-04-07T22:09:21.922Z,6.40
2023-04-07T22:11:50.642Z,7.70
2023-04-07T22:14:24.780Z,8.43
2023-04-07T22:16:52.955Z,7.53
2023-04-07T22:19:21.517Z,8.13
2023-04-07T22:21:49.541Z,7.50
2023-04-07T22:24:17.522Z,7.07
2023-04-07T22:26:45.561Z,8.27
2023-04-07T22:29:13.534Z,8.23
2023-04-07T22:31:42.868Z,8.60
2023-04-07T22:34:11.308Z,8.33
2023-04-07T22:36:39.306Z,8.13
2023-04-07T22:39:08.338Z,9.17
2023-04-07T22:41:36.327Z,7.83
2023-04-07T22:44:04.558Z,9.27
2023-04-07T22:46:32.568Z,8.40
2023-04-07T22:49:01.864Z,7.83
2023-04-07T22:51:29.949Z,8.70
2023-04-07T22:53:58.153Z,8.20
2023-04-07T22:56:27.140Z,7.67
2023-04-07T22:58:57.410Z,8.23
2023-04-07T23:01:25.511Z,8.93
2023-04-07T23:03:53.651Z,8.60
2023-04-07T23:06:22.993Z,9.23
2023-04-07T23:08:51.444Z,9.10
2023-04-07T23:11:21.013Z,9.30
2023-04-07T23:13:51.246Z,10.90
2023-04-07T23:16:19.292Z,9.63
2023-04-07T23:18:47.400Z,8.80
2023-04-07T23:21:15.518Z,8.60
2023-04-07T23:23:44.902Z,9.73
2023-04-07T23:26:12.867Z,9.57
2023-04-07T23:28:40.906Z,9.70
2023-04-07T23:31:08.915Z,10.60
2023-04-07T23:33:36.854Z,9.20
2023-04-07T23:36:05.308Z,9.70
2023-04-07T23:38:33.288Z,9.20
2023-04-07T23:41:03.148Z,9.00
2023-04-07T23:43:31.126Z,9.40
2023-04-07T23:45:59.123Z,9.43
2023-04-07T23:48:27.219Z,9.90
2023-04-07T23:50:55.966Z,10.00
2023-04-07T23:53:24.006Z,10.80
2023-04-07T23:55:51.976Z,9.90
2023-04-07T23:58:21.321Z,9.07
